^^
LKKV - Karlovy Vary, Czech Republic
Entfernung von Station: O 36km
Aktualisierung: 23.07.2017 22:00
Klar
Klar
 Wind von SW
Wind: SW 6 km/h
Temperatur: 15°C
Taupunkt: 7°C
Luftfeuchte: 59%
Luftdruck: 1016 hPa
Zusammenfassung: Klar
Sicht: mehr als 10 km
2017/07/23 20:00 LKKV 232000Z 22003KT 190V250 CAVOK 15/07 Q1016
EDQM - Hof, Germany
Entfernung von Station: W 40km
Aktualisierung: 23.07.2017 17:50
nicht aktuell
Klar
Klar
 Wind von WSW
Wind: WSW 22 km/h
Temperatur: 20°C
Taupunkt: 8°C
Luftfeuchte: 46%
Luftdruck: 1016 hPa
Zusammenfassung: Klar
Sicht: mehr als 10 km
2017/07/23 15:50 EDQM 231550Z 24012KT 200V280 CAVOK 20/08 Q1016
 
ETIC - Grafenwoehr, Germany
Entfernung von Station: SSW 72km
Aktualisierung: 23.07.2017 21:58
wolkig
wolkig
 Wind von calm
Wind: Windstill
Temperatur: 15°C
Taupunkt: 11°C
Luftfeuchte: 77%
Luftdruck: 1016.3 hPa
Wolken: wolkig
Sicht: 10 km
Wolken Details: wolkig 2134 m
2017/07/23 19:58 ETIC 231958Z AUTO 00000KT 9999 SCT070 15/11 A3001 RMK AO2 SLP157 T01540106
EDAC - Altenburg-Nobitz, Germany
Entfernung von Station: N 80km
Aktualisierung: 23.07.2017 18:50
nicht aktuell
Klar
Klar
 Wind von W
Wind: W 17 km/h
Temperatur: 22°C
Taupunkt: 10°C
Luftfeuchte: 47%
Luftdruck: 1013 hPa
Zusammenfassung: Klar
Sicht: mehr als 10 km
2017/07/23 16:50 EDAC 231650Z 26009KT CAVOK 22/10 Q1013
 
LKLN - Plzen Line, Czech Republic
Entfernung von Station: SO 88km
Aktualisierung: 23.07.2017 22:00
Bedeckt
Bedeckt
 Wind von W
Wind: W 6 km/h
Temperatur: 19°C
Taupunkt: 9°C
Luftfeuchte: 52%
Luftdruck: 1016 hPa
Wolken: Bedeckt
Sicht: 10 km
Wolken Details: Bedeckt 4267 m
2017/07/23 20:00 LKLN 232000Z AUTO 26003KT 230V290 9999 OVC140 19/09 Q1016
ETIH - Hohenfels (usa-A, Germany
Entfernung von Station: SSW 124km
Aktualisierung: 23.07.2017 21:58
Bedeckt
Bedeckt
 Wind von calm
Wind: Windstill
Temperatur: 18°C
Taupunkt: 13°C
Luftfeuchte: 73%
Luftdruck: 1017.3 hPa
Wolken: Bedeckt
Sicht: 10 km
Wolken Details: Bedeckt 2134 m
2017/07/23 19:58 ETIH 231958Z AUTO 00000KT 9999 OVC070 18/13 A3004 RMK AO2 SLP161
 
EDDE - Erfurt/Bindersleben, Germany
Entfernung von Station: NW 129km
Aktualisierung: 23.07.2017 22:50
Klar
Klar
 Wind von SW
Wind: SW 9 km/h
Temperatur: 14°C
Taupunkt: 9°C
Luftfeuchte: 72%
Luftdruck: 1015 hPa
Zusammenfassung: Klar
Sicht: mehr als 10 km
2017/07/23 20:50 EDDE 232050Z 22005KT CAVOK 14/09 Q1015
EDDP - Leipzig/Schkeudidtz, Germany
Entfernung von Station: N 129km
Aktualisierung: 23.07.2017 22:50
Klar
Klar
 Wind von WSW
Wind: WSW 17 km/h
Temperatur: 16°C
Taupunkt: 10°C
Luftfeuchte: 68%
Luftdruck: 1014 hPa
Zusammenfassung: Klar
Sicht: mehr als 10 km
2017/07/23 20:50 EDDP 232050Z 25009KT CAVOK 16/10 Q1014 NOSIG
 
EDDN - Nuernberg, Germany
Entfernung von Station: SW 130km
Aktualisierung: 23.07.2017 22:50
Klar
Klar
 Wind von calm
Wind: Windstill
Temperatur: 18°C
Taupunkt: 10°C
Luftfeuchte: 60%
Luftdruck: 1016 hPa
Zusammenfassung: Klar
Sicht: mehr als 10 km
2017/07/23 20:50 EDDN 232050Z 00000KT CAVOK 18/10 Q1016
LKPR - Prague/Ruzyne, Czech Republic
Entfernung von Station: O 133km
Aktualisierung: 23.07.2017 22:30
Klar
Klar
 Wind von SW
Wind: SW 19 km/h
Temperatur: 19°C
Taupunkt: 9°C
Luftfeuchte: 52%
Luftdruck: 1015 hPa
Zusammenfassung: Klar
Sicht: mehr als 10 km
2017/07/23 20:30 LKPR 232030Z 23010KT CAVOK 19/09 Q1015 NOSIG
 
EDDC - Dresden/Klotzsche, Germany
Entfernung von Station: NO 134km
Aktualisierung: 23.07.2017 22:50
Klar
Klar
 Wind von WSW
Wind: WSW 9 km/h
Temperatur: 20°C
Taupunkt: 11°C
Luftfeuchte: 56%
Luftdruck: 1014 hPa
Zusammenfassung: Klar
Sicht: mehr als 10 km
2017/07/23 20:50 EDDC 232050Z 25005KT CAVOK 20/11 Q1014
Besucherstatistik
Besucher gesamt: 693.581
Besucher heute: 962
Besucher gestern: 574
Besucher pro Tag: 850,70
gerade online: 19
max. online: 156
Seitenaufrufe diese Seite: 2.276
counter Statistiken